createdAt,value
2023-03-01T05:25:14.512Z,5.50
2023-03-01T05:27:43.969Z,6.22
2023-03-01T05:30:21.408Z,6.25
2023-03-01T05:33:04.606Z,6.13
2023-03-01T05:35:37.338Z,6.03
2023-03-01T05:38:15.396Z,7.53
2023-03-01T05:40:53.550Z,7.13
2023-03-01T05:43:23.736Z,7.30
2023-03-01T05:45:51.228Z,7.20
2023-03-01T05:48:21.243Z,7.05
2023-03-01T05:50:48.764Z,7.65
2023-03-01T05:53:20.076Z,8.63
2023-03-01T05:55:48.644Z,8.80
2023-03-01T05:58:19.134Z,8.88
2023-03-01T06:00:50.566Z,8.82
2023-03-01T06:03:19.039Z,9.15
2023-03-01T06:05:46.657Z,7.78
2023-03-01T06:08:15.049Z,9.00
2023-03-01T06:10:42.598Z,10.85
2023-03-01T06:13:09.854Z,10.88
2023-03-01T06:15:37.216Z,12.90
2023-03-01T06:18:04.660Z,12.68
2023-03-01T06:20:32.033Z,12.82
2023-03-01T06:22:59.566Z,10.60
2023-03-01T06:25:28.026Z,9.02
2023-03-01T06:27:56.362Z,8.25
2023-03-01T06:30:26.072Z,8.27
2023-03-01T06:32:54.517Z,8.25
2023-03-01T06:35:22.897Z,7.57
2023-03-01T06:37:51.038Z,7.38
2023-03-01T06:40:20.173Z,7.10
2023-03-01T06:42:50.990Z,8.75
2023-03-01T06:45:21.178Z,8.70
2023-03-01T06:47:51.196Z,8.45
2023-03-01T06:50:20.067Z,8.73
2023-03-01T06:52:51.938Z,7.90
2023-03-01T06:55:22.469Z,7.75
2023-03-01T06:57:51.533Z,9.02
2023-03-01T07:00:24.002Z,8.57
2023-03-01T07:02:53.025Z,8.13
2023-03-01T07:05:26.245Z,8.07
2023-03-01T07:08:03.367Z,8.20
2023-03-01T07:10:38.089Z,8.80
2023-03-01T07:13:09.081Z,8.52
2023-03-01T07:15:44.110Z,8.45
2023-03-01T07:18:17.248Z,8.20
2023-03-01T07:20:47.314Z,7.43
2023-03-01T07:23:16.411Z,7.60
2023-03-01T07:25:44.517Z,8.00
2023-03-01T07:28:15.887Z,8.05
2023-03-01T07:30:44.609Z,8.68
2023-03-01T07:33:18.980Z,9.75
2023-03-01T07:35:50.879Z,9.55
2023-03-01T07:38:24.900Z,9.23
2023-03-01T07:40:59.453Z,10.25
2023-03-01T07:46:04.177Z,10.13
2023-03-01T07:48:33.851Z,9.52
2023-03-01T07:51:08.813Z,11.40
2023-03-01T07:53:43.736Z,13.20
2023-03-01T07:56:29.521Z,14.38
2023-03-01T07:59:02.100Z,13.98
2023-03-01T08:01:31.616Z,12.15
2023-03-01T08:04:30.295Z,10.95
2023-03-01T08:07:08.093Z,11.48
2023-03-01T08:09:39.948Z,12.20
2023-03-01T08:12:10.446Z,11.45
2023-03-01T08:14:42.899Z,11.43
2023-03-01T08:17:10.871Z,10.67
2023-03-01T08:19:39.761Z,10.63
2023-03-01T08:22:08.912Z,10.70
2023-03-01T08:24:37.030Z,10.63
2023-03-01T08:27:30.632Z,9.48
2023-03-01T08:30:03.254Z,11.02
2023-03-01T08:32:52.141Z,10.73
2023-03-01T08:35:22.326Z,10.73
2023-03-01T08:37:57.574Z,10.75
2023-03-01T08:40:41.485Z,10.18
2023-03-01T08:45:58.121Z,10.63
2023-03-01T08:48:34.547Z,10.88
2023-03-01T08:51:14.354Z,11.55
2023-03-01T08:53:47.879Z,10.82
2023-03-01T08:56:20.477Z,9.55
2023-03-01T08:58:53.159Z,10.55
2023-03-01T09:01:21.251Z,10.50
2023-03-01T09:03:49.251Z,10.60
2023-03-01T09:06:18.043Z,10.85
2023-03-01T09:08:48.299Z,11.00
2023-03-01T09:11:19.742Z,10.38
2023-03-01T09:13:49.792Z,11.02
2023-03-01T09:16:20.794Z,9.65
2023-03-01T09:18:53.964Z,10.40
2023-03-01T09:21:39.532Z,12.25
2023-03-01T09:24:16.328Z,12.18
2023-03-01T09:26:49.946Z,11.57
2023-03-01T09:29:19.682Z,10.68
2023-03-01T09:31:51.519Z,9.50
2023-03-01T09:34:25.110Z,8.82
2023-03-01T09:36:53.890Z,9.93
2023-03-01T09:39:22.294Z,9.90
2023-03-01T09:42:06.657Z,9.52
2023-03-01T09:44:57.400Z,9.48
2023-03-01T09:47:47.010Z,10.05
2023-03-01T09:50:19.677Z,8.95
2023-03-01T09:53:15.763Z,9.68
2023-03-01T09:56:03.941Z,10.70
2023-03-01T09:58:55.418Z,10.57
2023-03-01T10:01:36.127Z,10.68
2023-03-01T10:04:41.515Z,10.35
2023-03-01T10:07:58.736Z,9.93
2023-03-01T10:11:02.466Z,9.57
2023-03-01T10:13:42.968Z,9.35
2023-03-01T10:16:26.285Z,10.00
2023-03-01T10:19:01.070Z,9.25
2023-03-01T10:21:35.735Z,8.13
2023-03-01T10:24:17.075Z,8.80
2023-03-01T10:26:56.264Z,8.65
2023-03-01T10:29:33.383Z,8.85
2023-03-01T10:32:08.749Z,9.15
2023-03-01T10:34:37.719Z,9.13
2023-03-01T10:37:32.433Z,8.75
2023-03-01T10:40:07.390Z,8.82
2023-03-01T10:42:51.368Z,8.15
2023-03-01T10:45:26.973Z,8.82
2023-03-01T10:48:26.942Z,9.35
2023-03-01T10:51:31.116Z,8.35
2023-03-01T10:54:01.683Z,7.90
2023-03-01T10:56:36.308Z,7.45
2023-03-01T10:59:09.353Z,7.57
2023-03-01T11:01:46.862Z,7.75
2023-03-01T11:04:34.378Z,7.30
2023-03-01T11:07:17.801Z,8.63
2023-03-01T11:09:50.442Z,7.75
2023-03-01T11:12:32.253Z,8.73
2023-03-01T11:15:49.030Z,8.63
2023-03-01T11:18:57.000Z,8.60
2023-03-01T11:21:40.194Z,8.52
2023-03-01T11:24:21.593Z,8.38
2023-03-01T11:26:57.820Z,8.45
2023-03-01T11:29:47.803Z,7.70
2023-03-01T11:32:23.325Z,8.05
2023-03-01T11:35:30.500Z,9.23
2023-03-01T11:38:19.463Z,9.90
2023-03-01T11:41:20.251Z,9.70
2023-03-01T11:44:00.726Z,9.63
2023-03-01T11:47:00.761Z,10.43
2023-03-01T11:49:57.087Z,11.20
2023-03-01T11:52:52.206Z,10.48
2023-03-01T11:55:49.844Z,10.82
2023-03-01T11:59:02.819Z,10.63
2023-03-01T12:02:10.639Z,10.52
2023-03-01T12:05:10.903Z,10.05
2023-03-01T12:08:12.305Z,10.40
2023-03-01T12:11:24.669Z,10.85
2023-03-01T12:14:31.052Z,10.73
2023-03-01T12:17:24.601Z,11.10
2023-03-01T12:20:21.188Z,10.48
2023-03-01T12:23:27.149Z,10.43
2023-03-01T12:26:27.790Z,11.45
2023-03-01T12:29:18.641Z,10.45
2023-03-01T12:31:54.682Z,12.18
2023-03-01T12:34:44.958Z,10.63
2023-03-01T12:37:47.852Z,11.60
2023-03-01T12:44:38.660Z,11.57
2023-03-01T12:51:00.110Z,13.15
2023-03-01T12:53:44.874Z,11.75
2023-03-01T12:56:46.203Z,11.63
2023-03-01T12:59:43.212Z,12.55
2023-03-01T13:02:44.134Z,12.48
2023-03-01T13:05:32.097Z,12.68
2023-03-01T13:29:04.252Z,12.30
2023-03-01T13:31:33.502Z,12.30
2023-03-01T13:34:13.964Z,12.68
2023-03-01T13:36:48.714Z,12.68
2023-03-01T13:39:35.695Z,12.32
2023-03-01T13:42:04.686Z,12.57
2023-03-01T13:44:42.518Z,12.00
2023-03-01T13:47:19.385Z,13.23
2023-03-01T13:49:57.698Z,11.93
2023-03-01T13:52:56.394Z,11.25
2023-03-01T13:55:47.117Z,11.65
2023-03-01T13:58:23.336Z,11.80
2023-03-01T14:01:07.576Z,12.20
2023-03-01T14:03:45.673Z,11.50
2023-03-01T14:06:21.423Z,11.63
2023-03-01T14:08:54.785Z,12.30
2023-03-01T14:12:04.262Z,11.50
2023-03-01T14:14:44.872Z,10.30
2023-03-01T14:17:40.115Z,11.35
2023-03-01T14:20:24.569Z,11.13
2023-03-01T14:22:56.718Z,11.55
2023-03-01T14:25:35.892Z,11.18
2023-03-01T14:28:32.346Z,11.68
2023-03-01T14:31:05.599Z,11.30
2023-03-01T14:33:38.269Z,11.15
2023-03-01T14:36:31.652Z,11.73
2023-03-01T14:39:06.234Z,11.93
2023-03-01T14:41:37.395Z,12.30
2023-03-01T14:44:14.825Z,13.07
2023-03-01T14:46:47.060Z,13.07
2023-03-01T14:49:21.889Z,12.40
2023-03-01T14:52:06.561Z,12.50
2023-03-01T14:54:41.745Z,12.13
2023-03-01T14:57:45.952Z,13.25
2023-03-01T15:00:27.027Z,12.93
2023-03-01T15:03:04.541Z,13.93
2023-03-01T15:05:37.793Z,13.60
2023-03-01T15:08:06.999Z,13.88
2023-03-01T15:10:39.097Z,12.65
2023-03-01T15:13:15.034Z,12.33
2023-03-01T15:15:47.091Z,13.75
2023-03-01T15:18:30.415Z,14.95
2023-03-01T15:21:18.577Z,13.20
2023-03-01T15:23:54.325Z,14.23
2023-03-01T15:26:32.584Z,14.35
2023-03-01T15:29:02.253Z,13.85
2023-03-01T15:31:36.769Z,13.75
2023-03-01T15:34:28.091Z,13.35
2023-03-01T15:37:30.947Z,13.80
2023-03-01T15:39:59.938Z,14.07
2023-03-01T15:42:34.393Z,13.98
2023-03-01T15:45:35.591Z,13.77
2023-03-01T15:48:22.212Z,14.40
2023-03-01T15:51:02.970Z,13.52
2023-03-01T15:53:43.877Z,14.30
2023-03-01T15:56:21.383Z,14.63
2023-03-01T15:58:54.562Z,14.45
2023-03-01T16:01:31.286Z,14.40
2023-03-01T16:03:59.572Z,13.52
2023-03-01T16:06:26.996Z,13.52
2023-03-01T16:08:55.985Z,13.77
2023-03-01T16:11:23.250Z,13.95
2023-03-01T16:13:51.090Z,13.02
2023-03-01T16:16:18.692Z,14.02
2023-03-01T16:18:48.769Z,13.73
2023-03-01T16:21:21.496Z,13.48
2023-03-01T16:23:50.134Z,14.82
2023-03-01T16:26:19.670Z,14.98
2023-03-01T16:28:50.736Z,14.30
2023-03-01T16:31:21.122Z,14.50
2023-03-01T16:33:51.209Z,15.00
2023-03-01T16:36:21.331Z,15.15
2023-03-01T16:38:52.782Z,14.43
2023-03-01T16:41:23.814Z,14.95
2023-03-01T16:43:51.871Z,15.70
2023-03-01T16:46:28.023Z,17.80
2023-03-01T16:48:57.870Z,18.95
2023-03-01T16:51:25.581Z,17.35
2023-03-01T16:53:56.673Z,19.95
2023-03-01T16:56:30.168Z,16.02
2023-03-01T17:01:26.893Z,15.73
2023-03-01T17:03:54.211Z,17.00
2023-03-01T17:06:23.380Z,16.80
2023-03-01T17:08:50.817Z,16.67
2023-03-01T17:11:20.560Z,16.50
2023-03-01T17:13:50.227Z,16.10
2023-03-01T17:16:20.455Z,16.38
2023-03-01T17:18:48.471Z,16.83
2023-03-01T17:21:16.312Z,16.77
2023-03-01T17:23:45.894Z,16.83
2023-03-01T17:26:14.004Z,16.45
2023-03-01T17:28:41.369Z,16.52
2023-03-01T17:31:08.740Z,16.17
2023-03-01T17:33:57.454Z,17.60
2023-03-01T17:36:47.750Z,18.02
2023-03-01T17:39:15.513Z,18.67
2023-03-01T17:41:44.507Z,19.00
2023-03-01T17:44:16.490Z,18.17
2023-03-01T17:46:46.826Z,19.33
2023-03-01T17:49:21.770Z,17.80
2023-03-01T17:51:50.305Z,18.40
2023-03-01T17:54:18.066Z,17.92
2023-03-01T17:56:47.178Z,19.27
2023-03-01T17:59:14.834Z,19.80
2023-03-01T18:01:44.462Z,20.25
2023-03-01T18:04:12.202Z,19.45
2023-03-01T18:06:41.810Z,20.42
2023-03-01T18:09:09.780Z,20.80
2023-03-01T18:11:37.288Z,21.17
2023-03-01T18:14:05.101Z,20.10
2023-03-01T18:16:34.769Z,20.00
2023-03-01T18:19:04.173Z,20.27
2023-03-01T18:21:34.404Z,20.23
2023-03-01T18:24:07.599Z,18.83
2023-03-01T18:26:35.815Z,19.58
2023-03-01T18:29:05.249Z,19.45
2023-03-01T18:31:33.696Z,19.30
2023-03-01T18:34:02.342Z,18.33
2023-03-01T18:36:41.623Z,18.80
2023-03-01T18:39:12.344Z,17.70
2023-03-01T18:41:39.707Z,18.63
2023-03-01T18:44:14.610Z,17.95
2023-03-01T18:46:47.627Z,18.17
2023-03-01T18:52:23.980Z,20.20
2023-03-01T18:55:03.142Z,21.05
2023-03-01T18:57:35.148Z,22.20
2023-03-01T19:00:08.185Z,21.05
2023-03-01T19:02:38.507Z,20.60
2023-03-01T19:05:09.848Z,21.02
2023-03-01T19:08:08.870Z,22.88
2023-03-01T19:10:36.977Z,21.45
2023-03-01T19:13:13.423Z,21.20
2023-03-01T19:15:46.170Z,22.70
2023-03-01T19:18:29.382Z,20.73
2023-03-01T19:21:26.072Z,20.35
2023-03-01T19:23:55.493Z,20.15
2023-03-01T19:26:48.981Z,23.83
2023-03-01T19:29:21.625Z,26.13
2023-03-01T19:31:57.851Z,24.42
2023-03-01T19:37:59.046Z,22.20
2023-03-01T19:40:28.004Z,21.88
2023-03-01T19:42:58.712Z,22.45
2023-03-01T19:48:40.605Z,21.30
2023-03-01T19:51:13.167Z,21.65
2023-03-01T19:53:49.405Z,22.52
2023-03-01T19:56:16.986Z,22.60
2023-03-01T19:58:52.393Z,25.23
2023-03-01T20:01:22.024Z,26.55
2023-03-01T20:03:49.510Z,24.77
2023-03-01T20:06:21.305Z,22.65
2023-03-01T20:09:12.143Z,23.33
2023-03-01T20:14:39.821Z,22.80
2023-03-01T20:17:13.477Z,21.83
2023-03-01T20:19:40.872Z,23.23
2023-03-01T20:22:08.262Z,23.23
2023-03-01T20:24:41.443Z,24.20
2023-03-01T20:27:08.889Z,24.90
2023-03-01T20:29:36.435Z,26.40
2023-03-01T20:32:04.178Z,24.50
2023-03-01T20:34:31.608Z,25.13
2023-03-01T20:36:59.149Z,23.85
2023-03-01T20:39:26.705Z,23.65
2023-03-01T20:41:55.388Z,29.75
2023-03-01T20:44:23.032Z,29.85
2023-03-01T20:46:51.037Z,25.77
2023-03-01T20:49:19.895Z,26.60
2023-03-01T20:51:48.561Z,25.90
2023-03-01T20:54:16.967Z,25.33
2023-03-01T20:56:45.038Z,25.15
2023-03-01T20:59:14.224Z,27.13
2023-03-01T21:01:47.065Z,25.73
2023-03-01T21:04:14.750Z,26.58
2023-03-01T21:06:43.413Z,24.55
2023-03-01T21:09:11.719Z,24.15
2023-03-01T21:11:39.632Z,24.55
2023-03-01T21:14:07.048Z,24.15
2023-03-01T21:16:35.822Z,22.88
2023-03-01T21:19:04.938Z,23.20
2023-03-01T21:21:36.386Z,24.80
2023-03-01T21:24:04.383Z,26.10
2023-03-01T21:26:31.893Z,22.65
2023-03-01T21:29:04.114Z,20.70
2023-03-01T21:31:35.284Z,20.83
2023-03-01T21:34:06.102Z,22.48
2023-03-01T21:36:34.818Z,21.02
2023-03-01T21:39:02.769Z,21.13
2023-03-01T21:41:33.593Z,20.20
2023-03-01T21:44:03.335Z,20.27
2023-03-01T21:46:33.781Z,19.52
2023-03-01T21:49:03.321Z,19.10
2023-03-01T21:51:32.194Z,19.88
2023-03-01T21:54:01.616Z,18.85
2023-03-01T21:56:32.131Z,20.55
2023-03-01T21:58:59.874Z,19.20
2023-03-01T22:01:28.600Z,19.83
2023-03-01T22:04:01.159Z,19.13
2023-03-01T22:06:31.705Z,18.55
2023-03-01T22:09:07.275Z,18.75
2023-03-01T22:11:43.094Z,17.92
2023-03-01T22:14:14.086Z,17.45
2023-03-01T22:16:43.187Z,19.00
2023-03-01T22:19:11.740Z,18.25
2023-03-01T22:21:40.878Z,18.95
2023-03-01T22:24:09.232Z,18.52
2023-03-01T22:26:40.095Z,19.15
2023-03-01T22:29:11.176Z,19.55
2023-03-01T22:31:38.963Z,19.15
2023-03-01T22:34:07.056Z,18.67
2023-03-01T22:36:34.649Z,19.55
2023-03-01T22:39:02.451Z,19.00
2023-03-01T22:41:33.167Z,19.77
2023-03-01T22:44:00.537Z,21.08
2023-03-01T22:46:28.805Z,22.13
2023-03-01T22:48:56.968Z,19.52
2023-03-01T22:51:27.919Z,19.67
2023-03-01T22:53:56.144Z,18.73
2023-03-01T22:56:26.495Z,19.58
2023-03-01T22:58:54.210Z,19.33
2023-03-01T23:01:23.613Z,18.50
2023-03-01T23:03:52.139Z,19.45
2023-03-01T23:06:21.758Z,19.83
2023-03-01T23:09:00.484Z,19.88
2023-03-01T23:11:28.888Z,20.63
2023-03-01T23:13:56.664Z,23.13
2023-03-01T23:16:26.719Z,22.10
2023-03-01T23:18:57.272Z,21.23
2023-03-01T23:21:24.900Z,21.88
2023-03-01T23:23:52.265Z,22.02
2023-03-01T23:26:22.524Z,21.58
2023-03-01T23:28:51.081Z,20.30
2023-03-01T23:31:19.175Z,20.88
2023-03-01T23:33:47.515Z,19.80
2023-03-01T23:36:19.593Z,20.67
2023-03-01T23:38:48.493Z,19.45
2023-03-01T23:41:19.156Z,18.88
2023-03-01T23:43:52.080Z,20.48
2023-03-01T23:46:21.136Z,19.63
2023-03-01T23:48:48.708Z,20.35
2023-03-01T23:51:18.431Z,19.58
2023-03-01T23:53:55.117Z,21.23
2023-03-01T23:56:26.448Z,19.88
2023-03-01T23:58:55.805Z,21.98
